createdAt,value
2022-10-17T00:00:34.675Z,98357.94
2022-10-17T00:03:01.896Z,98368.41
2022-10-17T00:05:28.847Z,98367.88
2022-10-17T00:07:55.523Z,98364.53
2022-10-17T00:10:22.690Z,98366.78
2022-10-17T00:12:51.465Z,98371.75
2022-10-17T00:15:20.339Z,98374.91
2022-10-17T00:17:47.267Z,98287.97
2022-10-17T00:20:14.350Z,98379.81
2022-10-17T00:22:41.037Z,98367.56
2022-10-17T00:25:08.066Z,98385.41
2022-10-17T00:27:36.536Z,98374.06
2022-10-17T00:30:05.206Z,98366.88
2022-10-17T00:32:32.071Z,98133.34
2022-10-17T00:34:59.010Z,98374.50
2022-10-17T00:37:25.663Z,98346.38
2022-10-17T00:39:52.365Z,98396.75
2022-10-17T00:42:18.931Z,98377.19
2022-10-17T00:44:47.632Z,98380.97
2022-10-17T00:47:18.779Z,98383.28
2022-10-17T00:49:45.939Z,98375.28
2022-10-17T00:52:17.979Z,98352.66
2022-10-17T00:54:49.388Z,98379.34
2022-10-17T00:57:16.886Z,98321.09
2022-10-17T00:59:47.299Z,98381.97
2022-10-17T01:02:17.335Z,98382.56
2022-10-17T01:04:47.490Z,98391.22
2022-10-17T01:07:14.203Z,98389.22
2022-10-17T01:09:42.964Z,98391.59
2022-10-17T01:12:18.499Z,98395.91
2022-10-17T01:15:03.255Z,98397.63
2022-10-17T01:17:48.504Z,98390.66
2022-10-17T01:20:15.053Z,98388.50
2022-10-17T01:22:49.698Z,98387.84
2022-10-17T01:25:56.075Z,98389.38
2022-10-17T01:28:38.068Z,98329.97
2022-10-17T01:31:13.592Z,98207.94
2022-10-17T01:33:54.611Z,98311.75
2022-10-17T01:36:44.091Z,98396.50
2022-10-17T01:39:13.896Z,98411.47
2022-10-17T01:41:49.344Z,98266.88
2022-10-17T01:44:40.920Z,98405.09
2022-10-17T01:47:13.615Z,97901.38
2022-10-17T01:49:44.079Z,98387.84
2022-10-17T01:52:15.491Z,98141.31
2022-10-17T01:54:50.207Z,98403.72
2022-10-17T01:57:31.330Z,98389.72
2022-10-17T01:59:58.335Z,98380.34
2022-10-17T02:02:26.839Z,98396.38
2022-10-17T02:04:55.782Z,98320.50
2022-10-17T02:07:22.440Z,98321.22
2022-10-17T02:09:49.083Z,98405.56
2022-10-17T02:12:15.612Z,98402.91
2022-10-17T02:14:42.131Z,98417.38
2022-10-17T02:17:15.163Z,98414.31
2022-10-17T02:20:09.653Z,98417.44
2022-10-17T02:22:52.448Z,98419.28
2022-10-17T02:25:42.177Z,98418.53
2022-10-17T02:28:14.864Z,98421.75
2022-10-17T02:30:47.171Z,98419.66
2022-10-17T02:33:26.147Z,98418.22
2022-10-17T02:35:57.244Z,98419.41
2022-10-17T02:38:28.089Z,98423.78
2022-10-17T02:40:55.905Z,98454.19
2022-10-17T02:43:23.779Z,98277.31
2022-10-17T02:45:51.724Z,98432.78
2022-10-17T02:48:31.186Z,98420.09
2022-10-17T02:51:15.699Z,98419.19
2022-10-17T02:53:42.269Z,98427.59
2022-10-17T02:56:16.638Z,98447.47
2022-10-17T02:58:48.888Z,98461.22
2022-10-17T03:01:16.710Z,98401.94
2022-10-17T03:03:43.489Z,98305.28
2022-10-17T03:06:10.310Z,98466.00
2022-10-17T03:11:08.497Z,98429.25
2022-10-17T03:13:39.002Z,98355.34
2022-10-17T03:16:06.655Z,98388.41
2022-10-17T03:18:33.319Z,98373.66
2022-10-17T03:20:59.941Z,98425.19
2022-10-17T03:23:26.615Z,98396.03
2022-10-17T03:25:53.468Z,98422.59
2022-10-17T03:28:20.131Z,98386.25
2022-10-17T03:30:46.653Z,98429.56
2022-10-17T03:33:13.257Z,98276.28
2022-10-17T03:35:40.635Z,98433.00
2022-10-17T03:38:07.302Z,98422.47
2022-10-17T03:40:33.916Z,98435.94
2022-10-17T03:43:00.454Z,98431.53
2022-10-17T03:45:27.061Z,98432.09
2022-10-17T03:47:53.655Z,98363.22
2022-10-17T03:50:20.260Z,98342.34
2022-10-17T03:52:48.564Z,98357.47
2022-10-17T03:55:15.921Z,98266.19
2022-10-17T03:57:45.373Z,98397.56
2022-10-17T04:00:13.102Z,98427.09
2022-10-17T04:02:39.739Z,98343.03
2022-10-17T04:05:07.155Z,98445.38
2022-10-17T04:07:33.735Z,98458.78
2022-10-17T04:10:00.327Z,98458.25
2022-10-17T04:12:27.068Z,98451.78
2022-10-17T04:14:53.958Z,98437.78
2022-10-17T04:17:20.580Z,98384.09
2022-10-17T04:19:49.079Z,98384.09
2022-10-17T04:22:15.803Z,98390.75
2022-10-17T04:24:42.400Z,98408.47
2022-10-17T04:27:09.025Z,98450.03
2022-10-17T04:29:35.621Z,98441.72
2022-10-17T04:32:02.441Z,98153.66
2022-10-17T04:34:29.169Z,98451.44
2022-10-17T04:36:55.751Z,98461.63
2022-10-17T04:39:22.361Z,98338.72
2022-10-17T04:41:49.013Z,98423.56
2022-10-17T04:44:15.638Z,98465.28
2022-10-17T04:46:42.210Z,98441.66
2022-10-17T04:49:09.064Z,98455.41
2022-10-17T04:51:35.721Z,98407.13
2022-10-17T04:54:02.321Z,98447.56
2022-10-17T04:56:28.933Z,98480.78
2022-10-17T04:58:55.703Z,98469.44
2022-10-17T05:01:23.661Z,98469.44
2022-10-17T05:03:50.396Z,98475.53
2022-10-17T05:06:21.137Z,98469.38
2022-10-17T05:08:48.393Z,98484.16
2022-10-17T05:11:29.135Z,98397.00
2022-10-17T05:13:57.706Z,98481.13
2022-10-17T05:16:25.807Z,98437.41
2022-10-17T05:18:55.752Z,98439.88
2022-10-17T05:21:24.471Z,98495.13
2022-10-17T05:23:51.547Z,98499.72
2022-10-17T05:26:18.505Z,98458.66
2022-10-17T05:28:45.212Z,98511.88
2022-10-17T05:31:12.605Z,98434.34
2022-10-17T05:33:39.534Z,98516.41
2022-10-17T05:36:07.441Z,98508.94
2022-10-17T05:38:34.377Z,98475.63
2022-10-17T05:41:02.720Z,98478.97
2022-10-17T05:43:30.056Z,98519.34
2022-10-17T05:45:56.769Z,98488.19
2022-10-17T05:48:23.972Z,98412.97
2022-10-17T05:50:50.508Z,98498.16
2022-10-17T05:53:17.477Z,98527.41
2022-10-17T05:55:44.074Z,98539.84
2022-10-17T05:58:17.697Z,98525.84
2022-10-17T06:00:49.121Z,98534.78
2022-10-17T06:03:15.700Z,98536.59
2022-10-17T06:05:42.394Z,98534.50
2022-10-17T06:08:09.026Z,98543.72
2022-10-17T06:10:35.616Z,98533.16
2022-10-17T06:13:02.177Z,98540.38
2022-10-17T06:15:28.724Z,98538.75
2022-10-17T06:17:55.261Z,98437.13
2022-10-17T06:20:21.807Z,98473.47
2022-10-17T06:22:48.385Z,98536.88
2022-10-17T06:25:15.108Z,98551.69
2022-10-17T06:27:41.707Z,98527.47
2022-10-17T06:30:08.796Z,98539.41
2022-10-17T06:32:35.363Z,98558.81
2022-10-17T06:35:02.165Z,98556.88
2022-10-17T06:37:35.595Z,98560.13
2022-10-17T06:40:04.341Z,98556.88
2022-10-17T06:42:30.921Z,98452.81
2022-10-17T06:44:57.499Z,98391.81
2022-10-17T06:47:24.240Z,98460.44
2022-10-17T06:49:50.831Z,98484.69
2022-10-17T06:52:17.495Z,98554.69
2022-10-17T06:54:44.697Z,98552.47
2022-10-17T06:57:11.319Z,98551.59
2022-10-17T06:59:37.951Z,98449.59
2022-10-17T07:02:05.657Z,98543.00
2022-10-17T07:04:32.611Z,98470.78
2022-10-17T07:09:27.762Z,98552.13
2022-10-17T07:11:54.388Z,98475.75
2022-10-17T07:14:21.171Z,98555.41
2022-10-17T07:16:47.801Z,98554.38
2022-10-17T07:19:14.475Z,98549.25
2022-10-17T07:21:41.093Z,98565.41
2022-10-17T07:24:07.711Z,98568.03
2022-10-17T07:26:34.299Z,98564.75
2022-10-17T07:29:01.891Z,98533.56
2022-10-17T07:31:28.666Z,98562.03
2022-10-17T07:33:55.266Z,98527.13
2022-10-17T07:36:21.826Z,98528.19
2022-10-17T07:38:48.375Z,98570.91
2022-10-17T07:41:19.206Z,98472.97
2022-10-17T07:43:48.294Z,98461.22
2022-10-17T07:46:15.009Z,98566.66
2022-10-17T07:48:41.640Z,98475.19
2022-10-17T07:51:09.669Z,98567.22
2022-10-17T07:53:38.149Z,98478.53
2022-10-17T07:56:09.133Z,98560.16
2022-10-17T07:58:37.091Z,98553.31
2022-10-17T08:01:08.360Z,98501.84
2022-10-17T08:03:37.424Z,98506.97
2022-10-17T08:06:04.134Z,98559.31
2022-10-17T08:08:30.798Z,98545.84
2022-10-17T08:11:03.695Z,98528.00
2022-10-17T08:13:30.501Z,98555.25
2022-10-17T08:16:05.527Z,98511.94
2022-10-17T08:18:32.110Z,98395.03
2022-10-17T08:21:03.249Z,98550.63
2022-10-17T08:23:29.792Z,98557.09
2022-10-17T08:26:00.469Z,98553.28
2022-10-17T08:28:27.050Z,98553.25
2022-10-17T08:30:53.618Z,98547.84
2022-10-17T08:33:20.213Z,98524.22
2022-10-17T08:35:46.777Z,98550.41
2022-10-17T08:38:13.622Z,98269.56
2022-10-17T08:40:42.899Z,98546.06
2022-10-17T08:43:35.185Z,98548.72
2022-10-17T08:46:07.783Z,98546.16
2022-10-17T08:48:46.814Z,98514.22
2022-10-17T08:51:21.752Z,98405.81
2022-10-17T08:54:15.479Z,98538.31
2022-10-17T08:56:49.700Z,98508.03
2022-10-17T08:59:28.553Z,98520.97
2022-10-17T09:02:29.238Z,98532.69
2022-10-17T09:05:01.913Z,98538.19
2022-10-17T09:08:07.269Z,98430.19
2022-10-17T09:11:17.330Z,98538.00
2022-10-17T09:14:05.624Z,98537.28
2022-10-17T09:16:59.614Z,98518.69
2022-10-17T09:19:35.498Z,98547.22
2022-10-17T09:22:09.533Z,98471.50
2022-10-17T09:24:36.105Z,98531.84
2022-10-17T09:27:03.472Z,98529.25
2022-10-17T09:29:36.086Z,98306.59
2022-10-17T09:32:18.404Z,98521.78
2022-10-17T09:34:45.945Z,98514.47
2022-10-17T09:37:17.290Z,98447.31
2022-10-17T09:39:44.812Z,98467.16
2022-10-17T09:42:21.435Z,98455.84
2022-10-17T09:44:58.813Z,98512.31
2022-10-17T09:47:51.775Z,98511.13
2022-10-17T09:50:31.032Z,98467.91
2022-10-17T09:53:10.219Z,98509.41
2022-10-17T09:55:43.447Z,98511.22
2022-10-17T09:58:11.528Z,98505.25
2022-10-17T10:00:39.493Z,98482.47
2022-10-17T10:03:22.969Z,98502.00
2022-10-17T10:06:07.971Z,98482.00
2022-10-17T10:08:37.992Z,98496.53
2022-10-17T10:11:13.439Z,98459.56
2022-10-17T10:13:40.740Z,98377.19
2022-10-17T10:16:24.302Z,98484.56
2022-10-17T10:18:51.937Z,98478.19
2022-10-17T10:21:21.474Z,98447.28
2022-10-17T10:24:03.676Z,98439.47
2022-10-17T10:26:50.651Z,98470.19
2022-10-17T10:29:40.029Z,98301.97
2022-10-17T10:35:23.088Z,98458.22
2022-10-17T10:37:58.424Z,98458.69
2022-10-17T10:40:39.113Z,98449.13
2022-10-17T10:43:06.586Z,98453.31
2022-10-17T10:45:47.532Z,98446.50
2022-10-17T10:48:35.030Z,98426.00
2022-10-17T10:51:19.151Z,98443.78
2022-10-17T10:53:56.655Z,98397.91
2022-10-17T10:56:30.239Z,98438.97
2022-10-17T10:59:08.757Z,98437.78
2022-10-17T11:01:50.564Z,98430.97
2022-10-17T11:04:30.000Z,98431.75
2022-10-17T11:07:13.425Z,98368.59
2022-10-17T11:09:46.535Z,98426.13
2022-10-17T11:12:27.805Z,98431.72
2022-10-17T11:15:03.583Z,98413.56
2022-10-17T11:17:39.392Z,98422.78
2022-10-17T11:20:08.961Z,98431.66
2022-10-17T11:23:00.411Z,98416.47
2022-10-17T11:25:40.813Z,98420.84
2022-10-17T11:28:14.997Z,98405.97
2022-10-17T11:30:48.176Z,98406.78
2022-10-17T11:33:20.257Z,98403.50
2022-10-17T11:35:51.405Z,98402.69
2022-10-17T11:38:39.928Z,98397.03
2022-10-17T11:41:10.849Z,98385.34
2022-10-17T11:44:20.448Z,98388.28
2022-10-17T11:46:54.521Z,98393.09
2022-10-17T11:52:55.358Z,98386.63
2022-10-17T11:55:28.121Z,98343.19
2022-10-17T11:58:03.840Z,98389.03
2022-10-17T12:00:46.174Z,98139.06
2022-10-17T12:03:28.169Z,98381.09
2022-10-17T12:05:58.881Z,98377.88
2022-10-17T12:08:53.291Z,98382.63
2022-10-17T12:11:56.374Z,98374.66
2022-10-17T12:14:39.587Z,98383.47
2022-10-17T12:17:29.287Z,98388.69
2022-10-17T12:20:25.552Z,98382.28
2022-10-17T12:23:03.271Z,98379.41
2022-10-17T12:25:34.255Z,98376.19
2022-10-17T12:28:15.963Z,98375.38
2022-10-17T12:30:56.694Z,98274.13
2022-10-17T12:33:34.106Z,98383.91
2022-10-17T12:36:19.091Z,98377.03
2022-10-17T12:38:50.485Z,98384.31
2022-10-17T12:41:37.568Z,98348.84
2022-10-17T12:44:12.920Z,98376.22
2022-10-17T12:46:52.450Z,98376.16
2022-10-17T12:49:43.637Z,98371.38
2022-10-17T12:52:31.570Z,98377.03
2022-10-17T12:55:15.545Z,98379.50
2022-10-17T12:57:44.050Z,98369.81
2022-10-17T13:00:22.890Z,98378.66
2022-10-17T13:02:54.012Z,98329.19
2022-10-17T13:05:38.575Z,98332.00
2022-10-17T13:08:08.335Z,98265.69
2022-10-17T13:10:41.951Z,98070.06
2022-10-17T13:13:40.429Z,98377.44
2022-10-17T13:16:07.569Z,98378.66
2022-10-17T13:18:34.485Z,98356.06
2022-10-17T13:21:03.934Z,98375.03
2022-10-17T13:23:36.589Z,98308.69
2022-10-17T13:26:18.184Z,98381.50
2022-10-17T13:28:44.814Z,98348.94
2022-10-17T13:31:32.316Z,98381.91
2022-10-17T13:34:02.511Z,98377.88
2022-10-17T13:36:31.539Z,98302.66
2022-10-17T13:39:00.701Z,98385.09
2022-10-17T13:41:35.740Z,98408.44
2022-10-17T13:44:09.368Z,98389.09
2022-10-17T13:46:38.449Z,98385.88
2022-10-17T13:49:15.532Z,98344.03
2022-10-17T13:51:48.127Z,98339.59
2022-10-17T13:54:38.205Z,98388.25
2022-10-17T13:57:06.015Z,98389.88
2022-10-17T13:59:39.120Z,98280.41
2022-10-17T14:02:12.651Z,98355.88
2022-10-17T14:05:04.074Z,98379.31
2022-10-17T14:07:46.165Z,98372.66
2022-10-17T14:10:24.932Z,98318.78
2022-10-17T14:12:53.363Z,98338.03
2022-10-17T14:15:22.755Z,98388.75
2022-10-17T14:17:56.597Z,98395.03
2022-10-17T14:23:36.637Z,98391.78
2022-10-17T14:26:16.154Z,98321.66
2022-10-17T14:28:45.770Z,98329.63
2022-10-17T14:31:18.475Z,98392.13
2022-10-17T14:33:50.623Z,98351.31
2022-10-17T14:36:19.450Z,98386.69
2022-10-17T14:38:52.199Z,98309.28
2022-10-17T14:41:42.801Z,98408.31
2022-10-17T14:44:23.772Z,98411.41
2022-10-17T14:46:55.083Z,98408.09
2022-10-17T14:49:33.974Z,98412.88
2022-10-17T14:52:15.162Z,98345.94
2022-10-17T14:54:48.939Z,98422.34
2022-10-17T14:57:33.088Z,98419.13
2022-10-17T15:00:00.059Z,98396.03
2022-10-17T15:02:30.711Z,98149.16
2022-10-17T15:04:57.914Z,98414.75
2022-10-17T15:07:24.961Z,98369.44
2022-10-17T15:09:53.843Z,98428.91
2022-10-17T15:12:23.718Z,98386.78
2022-10-17T15:14:51.935Z,98445.44
2022-10-17T15:17:22.537Z,98424.97
2022-10-17T15:19:50.958Z,98402.44
2022-10-17T15:22:18.461Z,98424.28
2022-10-17T15:24:48.267Z,98432.88
2022-10-17T15:27:23.799Z,98435.38
2022-10-17T15:29:51.764Z,98432.94
2022-10-17T15:32:19.093Z,98437.66
2022-10-17T15:34:45.831Z,98437.78
2022-10-17T15:37:22.574Z,98444.13
2022-10-17T15:39:54.700Z,98439.91
2022-10-17T15:42:26.505Z,98435.44
2022-10-17T15:44:53.852Z,98449.09
2022-10-17T15:47:34.307Z,98447.25
2022-10-17T15:50:02.271Z,98458.63
2022-10-17T15:52:28.997Z,98459.03
2022-10-17T15:54:57.423Z,98459.31
2022-10-17T15:57:30.315Z,98460.34
2022-10-17T15:59:59.853Z,98471.47
2022-10-17T16:02:26.988Z,98474.66
2022-10-17T16:04:53.996Z,98477.75
2022-10-17T16:07:21.970Z,98483.94
2022-10-17T16:09:48.784Z,98491.41
2022-10-17T16:14:50.551Z,98491.00
2022-10-17T16:17:17.831Z,98482.81
2022-10-17T16:19:47.682Z,98359.28
2022-10-17T16:22:36.849Z,98503.16
2022-10-17T16:25:10.267Z,98473.06
2022-10-17T16:27:37.919Z,98512.88
2022-10-17T16:30:06.802Z,98522.91
2022-10-17T16:32:33.951Z,98522.59
2022-10-17T16:35:00.757Z,98510.97
2022-10-17T16:37:27.635Z,98443.06
2022-10-17T16:39:54.385Z,98477.94
2022-10-17T16:42:21.810Z,98534.06
2022-10-17T16:44:49.887Z,98496.72
2022-10-17T16:47:17.790Z,98550.84
2022-10-17T16:49:45.481Z,98526.81
2022-10-17T16:52:13.699Z,98555.16
2022-10-17T16:54:40.594Z,98513.25
2022-10-17T16:57:07.397Z,98546.94
2022-10-17T16:59:34.220Z,98552.06
2022-10-17T17:02:05.064Z,98548.13
2022-10-17T17:04:31.997Z,98559.34
2022-10-17T17:06:59.012Z,98550.66
2022-10-17T17:09:27.189Z,98564.53
2022-10-17T17:11:53.929Z,98561.53
2022-10-17T17:14:20.704Z,98571.16
2022-10-17T17:16:47.523Z,98571.03
2022-10-17T17:19:20.083Z,98549.81
2022-10-17T17:21:51.196Z,98576.78
2022-10-17T17:24:21.299Z,98572.38
2022-10-17T17:26:55.474Z,98556.44
2022-10-17T17:29:23.874Z,98578.78
2022-10-17T17:31:55.456Z,98590.97
2022-10-17T17:34:22.284Z,98577.06
2022-10-17T17:36:53.716Z,98581.19
2022-10-17T17:39:20.488Z,98513.19
2022-10-17T17:41:47.318Z,98571.91
2022-10-17T17:44:16.773Z,98531.56
2022-10-17T17:46:44.534Z,98597.06
2022-10-17T17:49:11.854Z,98573.88
2022-10-17T17:51:41.721Z,98591.59
2022-10-17T17:54:14.041Z,98553.34
2022-10-17T17:56:40.904Z,98605.72
2022-10-17T17:59:07.810Z,98608.06
2022-10-17T18:01:41.744Z,98610.50
2022-10-17T18:04:09.563Z,98611.03
2022-10-17T18:06:42.467Z,98615.47
2022-10-17T18:09:11.163Z,98622.84
2022-10-17T18:11:38.832Z,98560.09
2022-10-17T18:14:08.194Z,98624.97
2022-10-17T18:16:36.800Z,98616.50
2022-10-17T18:19:09.361Z,98617.22
2022-10-17T18:21:39.020Z,98519.28
2022-10-17T18:24:06.313Z,98600.59
2022-10-17T18:26:33.998Z,98546.25
2022-10-17T18:29:03.351Z,98620.94
2022-10-17T18:31:38.321Z,98616.06
2022-10-17T18:34:08.126Z,98615.41
2022-10-17T18:36:39.151Z,98195.34
2022-10-17T18:39:06.044Z,98614.13
2022-10-17T18:41:33.901Z,98624.88
2022-10-17T18:44:00.933Z,98623.59
2022-10-17T18:46:36.031Z,98627.81
2022-10-17T18:49:13.742Z,98574.13
2022-10-17T18:51:46.099Z,98629.28
2022-10-17T18:54:23.286Z,98628.31
2022-10-17T18:56:53.104Z,98642.16
2022-10-17T18:59:20.784Z,98641.00
2022-10-17T19:01:50.911Z,98646.22
2022-10-17T19:04:17.847Z,98531.84
2022-10-17T19:06:46.805Z,98635.47
2022-10-17T19:09:17.532Z,98641.66
2022-10-17T19:11:48.260Z,98652.91
2022-10-17T19:14:24.206Z,98639.56
2022-10-17T19:16:53.717Z,98611.72
2022-10-17T19:19:24.150Z,98638.56
2022-10-17T19:21:54.519Z,98648.69
2022-10-17T19:24:27.048Z,98585.97
2022-10-17T19:26:56.994Z,98654.81
2022-10-17T19:29:27.651Z,98480.03
2022-10-17T19:34:29.268Z,98651.88
2022-10-17T19:36:57.771Z,98649.44
2022-10-17T19:39:27.716Z,98655.41
2022-10-17T19:42:04.258Z,98662.91
2022-10-17T19:44:33.645Z,98650.34
2022-10-17T19:47:03.226Z,98654.72
2022-10-17T19:49:30.041Z,98659.88
2022-10-17T19:51:59.481Z,98473.84
2022-10-17T19:54:26.359Z,98605.59
2022-10-17T19:56:53.235Z,98627.63
2022-10-17T19:59:20.219Z,98658.44
2022-10-17T20:01:52.864Z,98630.13
2022-10-17T20:04:19.757Z,98296.56
2022-10-17T20:06:46.557Z,98622.22
2022-10-17T20:09:16.904Z,98652.28
2022-10-17T20:11:47.396Z,98658.19
2022-10-17T20:14:14.228Z,98597.91
2022-10-17T20:16:41.040Z,98589.53
2022-10-17T20:19:10.622Z,98656.00
2022-10-17T20:21:39.991Z,98654.91
2022-10-17T20:24:09.090Z,98658.78
2022-10-17T20:26:41.608Z,98655.94
2022-10-17T20:29:13.563Z,98640.91
2022-10-17T20:31:42.227Z,98612.69
2022-10-17T20:34:12.891Z,98655.53
2022-10-17T20:36:39.830Z,98643.94
2022-10-17T20:39:07.546Z,98477.81
2022-10-17T20:41:34.483Z,98657.59
2022-10-17T20:44:01.292Z,98660.97
2022-10-17T20:46:37.274Z,98588.03
2022-10-17T20:49:08.741Z,98658.59
2022-10-17T20:51:36.306Z,98625.25
2022-10-17T20:54:06.345Z,98618.06
2022-10-17T20:56:34.963Z,98656.72
2022-10-17T20:59:04.743Z,98565.06
2022-10-17T21:01:32.949Z,98640.44
2022-10-17T21:04:15.827Z,98607.38
2022-10-17T21:06:52.122Z,98657.78
2022-10-17T21:09:19.877Z,98614.59
2022-10-17T21:11:46.805Z,98584.47
2022-10-17T21:14:13.642Z,98663.72
2022-10-17T21:16:41.487Z,98524.38
2022-10-17T21:19:09.873Z,98622.13
2022-10-17T21:21:38.680Z,98657.84
2022-10-17T21:24:09.247Z,98653.81
2022-10-17T21:26:37.708Z,98598.97
2022-10-17T21:29:06.039Z,98542.78
2022-10-17T21:31:35.172Z,98656.78
2022-10-17T21:34:12.233Z,98607.13
2022-10-17T21:36:39.510Z,98612.03
2022-10-17T21:41:33.743Z,98643.63
2022-10-17T21:44:03.920Z,98632.03
2022-10-17T21:46:33.084Z,98644.31
2022-10-17T21:49:01.106Z,98651.47
2022-10-17T21:51:28.337Z,98649.34
2022-10-17T21:53:57.363Z,98547.91
2022-10-17T21:56:29.152Z,98643.03
2022-10-17T21:58:56.774Z,98654.34
2022-10-17T22:01:30.779Z,98662.50
2022-10-17T22:04:00.377Z,98666.59
2022-10-17T22:06:45.029Z,98646.78
2022-10-17T22:09:20.694Z,98620.50
2022-10-17T22:11:49.177Z,98657.00
2022-10-17T22:14:18.471Z,98649.94
2022-10-17T22:16:46.645Z,98640.69
2022-10-17T22:19:15.688Z,98645.97
2022-10-17T22:21:42.372Z,98642.50
2022-10-17T22:24:12.392Z,98644.34
2022-10-17T22:26:39.120Z,98639.25
2022-10-17T22:29:07.595Z,98646.97
2022-10-17T22:31:34.443Z,98604.66
2022-10-17T22:34:00.995Z,98645.47
2022-10-17T22:36:27.746Z,98646.69
2022-10-17T22:38:54.327Z,98623.34
2022-10-17T22:41:20.897Z,98641.38
2022-10-17T22:43:47.506Z,98632.31
2022-10-17T22:46:16.688Z,98636.19
2022-10-17T22:48:43.765Z,98632.31
2022-10-17T22:51:11.078Z,98628.13
2022-10-17T22:53:38.105Z,98556.78
2022-10-17T22:56:09.344Z,98530.72
2022-10-17T22:58:36.536Z,98501.56
2022-10-17T23:01:04.602Z,98068.41
2022-10-17T23:03:31.951Z,98646.38
2022-10-17T23:05:58.922Z,98629.59
2022-10-17T23:08:27.290Z,98634.47
2022-10-17T23:10:54.140Z,98596.88
2022-10-17T23:13:21.954Z,98630.41
2022-10-17T23:15:52.955Z,98578.16
2022-10-17T23:18:20.581Z,98627.75
2022-10-17T23:20:47.944Z,98578.91
2022-10-17T23:23:14.888Z,98540.03
2022-10-17T23:25:41.814Z,98628.06
2022-10-17T23:28:08.884Z,98589.66
2022-10-17T23:30:36.835Z,98544.66
2022-10-17T23:33:04.423Z,98573.25
2022-10-17T23:35:31.918Z,98610.81
2022-10-17T23:37:58.521Z,98573.25
2022-10-17T23:40:25.195Z,98550.22
2022-10-17T23:42:51.809Z,98351.91
2022-10-17T23:45:18.548Z,98594.91
2022-10-17T23:47:45.296Z,98588.22
2022-10-17T23:50:12.678Z,98514.78
2022-10-17T23:52:39.491Z,98596.97
2022-10-17T23:55:06.814Z,98600.34
2022-10-17T23:57:33.654Z,98599.25
